createdAt,value
2019-01-02T00:00:03.875Z,98730.11
2019-01-02T00:02:37.836Z,98731.34
2019-01-02T00:05:11.735Z,98735.81
2019-01-02T00:07:44.087Z,98715.15
2019-01-02T00:10:17.769Z,98748.64
2019-01-02T00:12:49.949Z,98751.52
2019-01-02T00:15:21.986Z,98751.92
2019-01-02T00:17:57.767Z,98770.65
2019-01-02T00:20:29.962Z,98770.65
2019-01-02T00:23:02.949Z,98758.30
2019-01-02T00:25:36.058Z,98756.61
2019-01-02T00:28:08.108Z,98735.33
2019-01-02T00:30:42.076Z,98744.30
2019-01-02T00:33:16.491Z,98738.53
2019-01-02T00:35:49.037Z,98753.94
2019-01-02T00:38:23.353Z,98762.41
2019-01-02T00:40:56.930Z,98757.02
2019-01-02T00:43:29.987Z,98760.98
2019-01-02T00:46:04.153Z,98764.45
2019-01-02T00:48:37.490Z,98768.50
2019-01-02T00:51:11.279Z,98769.10
2019-01-02T00:53:44.245Z,98768.59
2019-01-02T00:56:15.565Z,98769.95
2019-01-02T00:58:49.051Z,98770.14
2019-01-02T01:01:22.108Z,98766.89
2019-01-02T01:03:56.189Z,98768.09
2019-01-02T01:06:30.169Z,98768.31
2019-01-02T01:09:03.489Z,98768.72
2019-01-02T01:11:34.850Z,98773.88
2019-01-02T01:14:08.699Z,98769.52
2019-01-02T01:16:41.214Z,98773.98
2019-01-02T01:19:17.269Z,98776.53
2019-01-02T01:21:50.140Z,98773.95
2019-01-02T01:24:24.705Z,98775.61
2019-01-02T01:26:56.393Z,98762.41
2019-01-02T01:29:29.328Z,98770.52
2019-01-02T01:32:01.369Z,98772.78
2019-01-02T01:34:34.560Z,98760.00
2019-01-02T01:37:06.411Z,98768.84
2019-01-02T01:39:37.916Z,98770.95
2019-01-02T01:42:10.330Z,98758.67
2019-01-02T01:44:44.418Z,98777.38
2019-01-02T01:47:17.283Z,98770.27
2019-01-02T01:49:50.460Z,98774.13
2019-01-02T01:52:23.979Z,98781.53
2019-01-02T01:54:58.368Z,98784.66
2019-01-02T01:57:31.712Z,98777.88
2019-01-02T02:00:03.100Z,98798.76
2019-01-02T02:02:36.877Z,98802.53
2019-01-02T02:05:11.087Z,98797.45
2019-01-02T02:07:42.619Z,98795.10
2019-01-02T02:10:16.438Z,98791.47
2019-01-02T02:12:50.461Z,98805.63
2019-01-02T02:15:22.439Z,98802.17
2019-01-02T02:17:55.935Z,98794.77
2019-01-02T02:20:29.536Z,98800.27
2019-01-02T02:23:03.443Z,98791.03
2019-01-02T02:25:36.829Z,98786.81
2019-01-02T02:28:10.541Z,98785.31
2019-01-02T02:30:46.170Z,98778.48
2019-01-02T02:33:17.966Z,98786.68
2019-01-02T02:35:49.636Z,98788.78
2019-01-02T02:38:21.651Z,98788.67
2019-01-02T02:40:55.742Z,98807.20
2019-01-02T02:43:31.365Z,98820.15
2019-01-02T02:46:03.644Z,98816.73
2019-01-02T02:48:37.756Z,98809.24
2019-01-02T02:51:10.790Z,98788.32
2019-01-02T02:53:44.169Z,98782.23
2019-01-02T02:56:18.468Z,98780.83
2019-01-02T02:58:51.743Z,98802.11
2019-01-02T03:01:23.848Z,98800.48
2019-01-02T03:03:55.970Z,98804.64
2019-01-02T03:06:29.649Z,98802.80
2019-01-02T03:09:02.875Z,98798.05
2019-01-02T03:11:35.905Z,98804.00
2019-01-02T03:14:09.906Z,98809.92
2019-01-02T03:16:42.818Z,98820.64
2019-01-02T03:19:18.418Z,98814.05
2019-01-02T03:21:50.879Z,98824.32
2019-01-02T03:24:23.698Z,98832.52
2019-01-02T03:26:54.957Z,98841.78
2019-01-02T03:29:27.954Z,98830.06
2019-01-02T03:32:01.754Z,98830.84
2019-01-02T03:34:35.067Z,98832.80
2019-01-02T03:37:07.175Z,98826.10
2019-01-02T03:39:41.036Z,98814.13
2019-01-02T03:42:14.300Z,98817.94
2019-01-02T03:44:47.824Z,98814.91
2019-01-02T03:47:20.917Z,98825.25
2019-01-02T03:49:54.825Z,98822.89
2019-01-02T03:52:26.971Z,98825.64
2019-01-02T03:55:00.236Z,98819.15
2019-01-02T03:57:34.598Z,98825.25
2019-01-02T04:00:09.157Z,98817.16
2019-01-02T04:02:40.894Z,98827.71
2019-01-02T04:05:16.867Z,98814.84
2019-01-02T04:07:54.681Z,98812.27
2019-01-02T04:10:26.870Z,98815.94
2019-01-02T04:12:58.140Z,98809.95
2019-01-02T04:15:30.266Z,98815.77
2019-01-02T04:18:02.110Z,98806.71
2019-01-02T04:20:35.997Z,98801.48
2019-01-02T04:23:09.192Z,98788.08
2019-01-02T04:25:40.472Z,98793.89
2019-01-02T04:28:16.532Z,98791.25
2019-01-02T04:30:48.078Z,98772.97
2019-01-02T04:33:21.201Z,98762.30
2019-01-02T04:35:55.113Z,98771.33
2019-01-02T04:38:29.153Z,98771.22
2019-01-02T04:41:02.078Z,98772.84
2019-01-02T04:43:36.148Z,98778.34
2019-01-02T04:46:10.163Z,98777.01
2019-01-02T04:48:44.186Z,98777.01
2019-01-02T04:51:17.978Z,98778.01
2019-01-02T04:53:52.573Z,98787.14
2019-01-02T04:56:24.032Z,98787.38
2019-01-02T04:58:56.186Z,98773.16
2019-01-02T05:01:31.932Z,98779.22
2019-01-02T05:04:04.260Z,98780.44
2019-01-02T05:06:36.375Z,98770.06
2019-01-02T05:09:09.276Z,98771.91
2019-01-02T05:11:41.276Z,98776.59
2019-01-02T05:14:12.856Z,98785.89
2019-01-02T05:16:45.223Z,98790.48
2019-01-02T05:19:19.211Z,98799.80
2019-01-02T05:21:51.497Z,98817.37
2019-01-02T05:24:23.494Z,98829.34
2019-01-02T05:26:57.329Z,98841.00
2019-01-02T05:29:28.607Z,98852.02
2019-01-02T05:32:01.371Z,98878.22
2019-01-02T05:34:32.644Z,98876.27
2019-01-02T05:37:06.679Z,98875.41
2019-01-02T05:39:39.594Z,98881.89
2019-01-02T05:42:13.314Z,98897.45
2019-01-02T05:44:45.548Z,98898.50
2019-01-02T05:47:18.203Z,98911.14
2019-01-02T05:49:49.481Z,98910.36
2019-01-02T05:52:22.473Z,98921.11
2019-01-02T05:54:56.504Z,98924.16
2019-01-02T05:57:32.328Z,98923.66
2019-01-02T06:00:04.996Z,98924.74
2019-01-02T06:02:37.639Z,98915.66
2019-01-02T06:05:09.299Z,98921.92
2019-01-02T06:07:42.605Z,98922.64
2019-01-02T06:10:18.372Z,98912.41
2019-01-02T06:12:50.655Z,98912.66
2019-01-02T06:15:23.696Z,98920.45
2019-01-02T06:17:56.509Z,98916.80
2019-01-02T06:20:27.811Z,98923.97
2019-01-02T06:23:00.981Z,98923.27
2019-01-02T06:25:34.948Z,98922.68
2019-01-02T06:28:08.705Z,98919.39
2019-01-02T06:30:44.238Z,98912.86
2019-01-02T06:33:15.562Z,98915.99
2019-01-02T06:35:46.932Z,98918.95
2019-01-02T06:38:20.695Z,98910.73
2019-01-02T06:40:53.331Z,98920.64
2019-01-02T06:43:24.645Z,98918.38
2019-01-02T06:45:57.734Z,98912.55
2019-01-02T06:48:30.583Z,98921.88
2019-01-02T06:51:02.915Z,98925.31
2019-01-02T06:53:36.631Z,98928.16
2019-01-02T06:56:09.812Z,98923.14
2019-01-02T06:58:45.318Z,98932.78
2019-01-02T07:01:17.761Z,98925.83
2019-01-02T07:03:52.397Z,98928.77
2019-01-02T07:06:24.081Z,98931.52
2019-01-02T07:08:58.276Z,98932.11
2019-01-02T07:11:32.031Z,98911.05
2019-01-02T07:14:05.789Z,98932.84
2019-01-02T07:16:38.001Z,98935.23
2019-01-02T07:19:12.603Z,98930.48
2019-01-02T07:21:44.602Z,98933.73
2019-01-02T07:24:22.154Z,98937.67
2019-01-02T07:26:55.053Z,98940.59
2019-01-02T07:29:28.044Z,98933.23
2019-01-02T07:31:59.892Z,98942.03
2019-01-02T07:35:31.435Z,98942.03
2019-01-02T07:39:02.350Z,98941.02
2019-01-02T07:42:06.950Z,98937.19
2019-01-02T07:45:23.747Z,98942.58
2019-01-02T07:48:36.680Z,98942.02
2019-01-02T07:51:38.504Z,98939.95
2019-01-02T07:55:03.464Z,98942.63
2019-01-02T07:58:21.972Z,98948.55
2019-01-02T08:01:30.007Z,98950.73
2019-01-02T08:04:26.339Z,98944.40
2019-01-02T08:07:56.455Z,98950.65
2019-01-02T08:11:08.337Z,98938.06
2019-01-02T08:14:37.324Z,98939.42
2019-01-02T08:17:30.458Z,98945.02
2019-01-02T08:20:55.331Z,98957.06
2019-01-02T08:24:12.260Z,98943.91
2019-01-02T08:27:19.748Z,98959.13
2019-01-02T08:30:24.222Z,98949.98
2019-01-02T08:33:27.271Z,98945.66
2019-01-02T08:37:08.617Z,98946.89
2019-01-02T08:40:28.083Z,98953.92
2019-01-02T08:43:44.488Z,98959.16
2019-01-02T08:46:57.362Z,98959.77
2019-01-02T08:50:10.340Z,98970.68
2019-01-02T08:53:22.660Z,98977.52
2019-01-02T08:56:48.538Z,98961.95
2019-01-02T08:59:44.615Z,98979.45
2019-01-02T09:02:51.869Z,98980.14
2019-01-02T09:06:17.360Z,98992.94
2019-01-02T09:09:39.379Z,98988.56
2019-01-02T09:12:42.483Z,99007.42
2019-01-02T09:15:45.980Z,99026.89
2019-01-02T09:18:49.469Z,99028.50
2019-01-02T09:21:56.314Z,99025.05
2019-01-02T09:25:02.699Z,99039.24
2019-01-02T09:28:18.615Z,99050.97
2019-01-02T09:31:45.374Z,99051.14
2019-01-02T09:34:36.833Z,99050.28
2019-01-02T09:38:04.869Z,99053.86
2019-01-02T09:41:17.750Z,99048.91
2019-01-02T09:44:35.773Z,99038.24
2019-01-02T09:47:44.570Z,99042.87
2019-01-02T09:50:54.626Z,99043.17
2019-01-02T09:54:18.885Z,99044.30
2019-01-02T09:57:46.816Z,99042.72
2019-01-02T10:00:34.929Z,99049.48
2019-01-02T10:03:52.399Z,99043.19
2019-01-02T10:06:55.725Z,99041.13
2019-01-02T10:09:57.636Z,99040.48
2019-01-02T10:12:53.904Z,99032.80
2019-01-02T10:16:05.355Z,99028.09
2019-01-02T10:19:09.606Z,99024.00
2019-01-02T10:22:40.814Z,99020.89
2019-01-02T10:25:44.443Z,99022.39
2019-01-02T10:28:56.342Z,99013.30
2019-01-02T10:32:17.999Z,99008.63
2019-01-02T10:35:33.795Z,99013.95
2019-01-02T10:39:06.194Z,99010.98
2019-01-02T10:42:08.790Z,99009.27
2019-01-02T10:45:25.215Z,99010.41
2019-01-02T10:48:55.273Z,98993.24
2019-01-02T10:52:06.649Z,98988.43
2019-01-02T10:55:01.538Z,98987.64
2019-01-02T10:58:15.572Z,98985.24
2019-01-02T11:01:20.552Z,98994.67
2019-01-02T11:04:44.049Z,98976.21
2019-01-02T11:07:50.739Z,98971.42
2019-01-02T11:11:03.644Z,98976.39
2019-01-02T11:14:04.993Z,98969.81
2019-01-02T11:17:41.358Z,98960.50
2019-01-02T11:20:59.385Z,98979.59
2019-01-02T11:24:05.209Z,98983.06
2019-01-02T11:27:21.718Z,98989.05
2019-01-02T11:30:39.770Z,99009.05
2019-01-02T11:34:07.653Z,99011.73
2019-01-02T11:37:39.268Z,99001.34
2019-01-02T11:40:49.031Z,99013.05
2019-01-02T11:44:21.141Z,99016.84
2019-01-02T11:46:52.270Z,99024.91
2019-01-02T11:49:24.531Z,99021.11
2019-01-02T11:51:55.917Z,99019.91
2019-01-02T11:54:30.143Z,99018.81
2019-01-02T11:57:03.386Z,99014.95
2019-01-02T11:59:36.210Z,99001.22
2019-01-02T12:02:10.129Z,99005.84
2019-01-02T12:04:43.158Z,99002.05
2019-01-02T12:07:19.022Z,99001.05
2019-01-02T12:09:53.283Z,99005.46
2019-01-02T12:12:24.666Z,99010.96
2019-01-02T12:14:58.095Z,99010.56
2019-01-02T12:17:31.364Z,99018.76
2019-01-02T12:20:05.685Z,99017.27
2019-01-02T12:22:38.190Z,99020.08
2019-01-02T12:25:14.049Z,99009.80
2019-01-02T12:27:46.296Z,99011.23
2019-01-02T12:30:19.771Z,99022.94
2019-01-02T12:32:53.253Z,99025.74
2019-01-02T12:35:24.639Z,99035.43
2019-01-02T12:37:58.486Z,99035.66
2019-01-02T12:40:31.371Z,99028.56
2019-01-02T12:43:07.002Z,99004.80
2019-01-02T12:45:39.360Z,98995.52
2019-01-02T12:48:13.490Z,98989.75
2019-01-02T12:50:47.269Z,98999.77
2019-01-02T12:53:21.456Z,98998.01
2019-01-02T12:55:54.451Z,98998.83
2019-01-02T12:58:28.945Z,99006.68
2019-01-02T13:01:07.516Z,99005.22
2019-01-02T13:04:18.336Z,99012.88
2019-01-02T13:07:53.945Z,99011.52
2019-01-02T13:10:57.142Z,99020.09
2019-01-02T13:13:55.254Z,99025.36
2019-01-02T13:17:10.057Z,99020.47
2019-01-02T13:20:23.197Z,99038.86
2019-01-02T13:23:28.728Z,99056.69
2019-01-02T13:26:19.195Z,99064.14
2019-01-02T13:29:28.675Z,99074.07
2019-01-02T13:32:31.107Z,99071.81
2019-01-02T13:35:39.769Z,99084.41
2019-01-02T13:39:08.367Z,99091.33
2019-01-02T13:42:06.421Z,99096.27
2019-01-02T13:44:46.679Z,99096.47
2019-01-02T13:48:06.907Z,99094.08
2019-01-02T13:51:23.754Z,99102.94
2019-01-02T13:53:57.753Z,99108.38
2019-01-02T13:56:31.861Z,99108.45
2019-01-02T13:59:05.606Z,99113.62
2019-01-02T14:01:39.801Z,99122.70
2019-01-02T14:04:12.600Z,99120.91
2019-01-02T14:06:45.067Z,99130.14
2019-01-02T14:09:16.656Z,99138.08
2019-01-02T14:11:48.445Z,99145.25
2019-01-02T14:14:21.727Z,99147.04
2019-01-02T14:16:54.924Z,99147.73
2019-01-02T14:19:28.789Z,99151.81
2019-01-02T14:22:01.819Z,99151.03
2019-01-02T14:24:33.932Z,99146.81
2019-01-02T14:27:05.810Z,99141.80
2019-01-02T14:29:37.569Z,99147.17
2019-01-02T14:32:10.696Z,99146.95
2019-01-02T14:34:43.932Z,99146.32
2019-01-02T14:37:17.766Z,99154.81
2019-01-02T14:39:51.785Z,99157.81
2019-01-02T14:42:24.769Z,99159.91
2019-01-02T14:44:56.649Z,99163.11
2019-01-02T14:47:29.811Z,99169.49
2019-01-02T14:50:06.821Z,99174.63
2019-01-02T14:52:43.319Z,99175.25
2019-01-02T14:55:14.375Z,99176.66
2019-01-02T14:57:47.894Z,99176.85
2019-01-02T15:00:21.925Z,99179.48
2019-01-02T15:02:56.011Z,99171.97
2019-01-02T15:05:27.795Z,99173.97
2019-01-02T15:07:59.834Z,99183.05
2019-01-02T15:10:33.115Z,99187.24
2019-01-02T15:13:07.518Z,99198.78
2019-01-02T15:15:41.074Z,99199.75
2019-01-02T15:18:15.508Z,99199.75
2019-01-02T15:20:48.273Z,99202.73
2019-01-02T15:23:20.850Z,99208.05
2019-01-02T15:25:52.187Z,99207.45
2019-01-02T15:28:25.467Z,99217.50
2019-01-02T15:30:59.073Z,99216.44
2019-01-02T15:33:31.214Z,99228.72
2019-01-02T15:36:05.888Z,99223.31
2019-01-02T15:38:40.185Z,99231.84
2019-01-02T15:41:13.979Z,99231.63
2019-01-02T15:43:47.158Z,99237.59
2019-01-02T15:46:18.523Z,99247.77
2019-01-02T15:48:53.845Z,99247.82
2019-01-02T15:51:25.305Z,99248.17
2019-01-02T15:53:59.190Z,99254.05
2019-01-02T15:56:32.107Z,99264.94
2019-01-02T15:59:04.246Z,99266.47
2019-01-02T16:01:38.011Z,99281.36
2019-01-02T16:04:12.106Z,99276.71
2019-01-02T16:06:44.324Z,99273.47
2019-01-02T16:09:17.199Z,99276.64
2019-01-02T16:11:51.120Z,99287.23
2019-01-02T16:14:23.221Z,99295.19
2019-01-02T16:16:57.312Z,99301.06
2019-01-02T16:19:31.151Z,99298.30
2019-01-02T16:22:04.245Z,99295.19
2019-01-02T16:24:37.563Z,99295.53
2019-01-02T16:27:10.002Z,99303.42
2019-01-02T16:29:42.393Z,99298.52
2019-01-02T16:32:15.401Z,99304.75
2019-01-02T16:34:49.393Z,99309.95
2019-01-02T16:37:23.441Z,99321.08
2019-01-02T16:39:56.566Z,99334.67
2019-01-02T16:42:30.320Z,99340.64
2019-01-02T16:45:03.343Z,99340.08
2019-01-02T16:47:37.241Z,99345.33
2019-01-02T16:50:11.652Z,99357.33
2019-01-02T16:52:44.472Z,99359.34
2019-01-02T16:55:18.348Z,99365.42
2019-01-02T16:57:51.331Z,99361.42
2019-01-02T17:00:24.831Z,99339.22
2019-01-02T17:02:56.468Z,99368.21
2019-01-02T17:05:28.559Z,99378.88
2019-01-02T17:08:01.144Z,99376.77
2019-01-02T17:10:34.436Z,99380.86
2019-01-02T17:13:09.462Z,99391.06
2019-01-02T17:15:41.462Z,99396.89
2019-01-02T17:18:15.782Z,99414.68
2019-01-02T17:20:49.147Z,99416.98
2019-01-02T17:23:20.444Z,99411.14
2019-01-02T17:25:54.082Z,99428.55
2019-01-02T17:28:25.745Z,99422.22
2019-01-02T17:30:57.428Z,99435.09
2019-01-02T17:33:31.480Z,99436.84
2019-01-02T17:36:06.996Z,99441.03
2019-01-02T17:38:38.642Z,99442.01
2019-01-02T17:41:12.514Z,99451.60
2019-01-02T17:43:45.575Z,99457.66
2019-01-02T17:46:19.618Z,99463.06
2019-01-02T17:48:52.487Z,99463.90
2019-01-02T17:51:24.692Z,99481.34
2019-01-02T17:53:57.593Z,99483.44
2019-01-02T17:56:28.971Z,99486.98
2019-01-02T17:59:01.557Z,99498.48
2019-01-02T18:01:32.812Z,99499.95
2019-01-02T18:04:05.881Z,99498.81
2019-01-02T18:06:39.700Z,99495.24
2019-01-02T18:09:13.589Z,99502.46
2019-01-02T18:11:45.637Z,99510.29
2019-01-02T18:14:17.603Z,99519.88
2019-01-02T18:16:51.579Z,99514.12
2019-01-02T18:19:22.844Z,99523.81
2019-01-02T18:21:56.674Z,99528.70
2019-01-02T18:24:28.720Z,99529.41
2019-01-02T18:27:00.745Z,99531.67
2019-01-02T18:29:38.256Z,99528.70
2019-01-02T18:32:11.564Z,99531.86
2019-01-02T18:34:44.927Z,99535.34
2019-01-02T18:37:18.995Z,99543.39
2019-01-02T18:39:52.840Z,99537.05
2019-01-02T18:42:24.868Z,99546.80
2019-01-02T18:44:56.969Z,99555.02
2019-01-02T18:47:28.816Z,99558.84
2019-01-02T18:50:00.652Z,99560.98
2019-01-02T18:52:31.891Z,99557.38
2019-01-02T18:55:04.738Z,99558.05
2019-01-02T18:57:35.988Z,99562.14
2019-01-02T19:00:11.286Z,99551.98
2019-01-02T19:02:42.759Z,99558.37
2019-01-02T19:05:16.856Z,99543.94
2019-01-02T19:07:51.539Z,99556.88
2019-01-02T19:10:23.972Z,99555.75
2019-01-02T19:12:59.662Z,99566.58
2019-01-02T19:15:30.988Z,99570.38
2019-01-02T19:18:04.991Z,99578.93
2019-01-02T19:20:37.050Z,99592.92
2019-01-02T19:23:09.980Z,99602.39
2019-01-02T19:25:44.015Z,99615.66
2019-01-02T19:28:17.006Z,99632.52
2019-01-02T19:30:51.138Z,99639.30
2019-01-02T19:33:24.895Z,99659.64
2019-01-02T19:36:00.629Z,99658.95
2019-01-02T19:38:33.072Z,99664.34
2019-01-02T19:41:06.070Z,99679.25
2019-01-02T19:43:37.345Z,99672.20
2019-01-02T19:46:10.122Z,99687.63
2019-01-02T19:48:44.039Z,99666.20
2019-01-02T19:51:19.327Z,99679.48
2019-01-02T19:53:51.273Z,99679.51
2019-01-02T19:56:23.134Z,99678.33
2019-01-02T19:58:57.031Z,99671.42
2019-01-02T20:01:31.194Z,99663.84
2019-01-02T20:04:05.261Z,99664.78
2019-01-02T20:06:36.774Z,99667.72
2019-01-02T20:09:08.979Z,99673.19
2019-01-02T20:11:43.108Z,99676.05
2019-01-02T20:14:17.152Z,99662.75
2019-01-02T20:16:51.083Z,99655.20
2019-01-02T20:19:25.421Z,99651.14
2019-01-02T20:21:58.149Z,99649.19
2019-01-02T20:24:32.181Z,99656.09
2019-01-02T20:27:06.307Z,99647.21
2019-01-02T20:29:41.831Z,99649.48
2019-01-02T20:32:14.043Z,99660.92
2019-01-02T20:34:47.502Z,99658.28
2019-01-02T20:37:21.301Z,99656.80
2019-01-02T20:39:52.621Z,99659.95
2019-01-02T20:42:25.027Z,99656.48
2019-01-02T20:44:56.444Z,99658.86
2019-01-02T20:47:28.630Z,99665.08
2019-01-02T20:50:00.288Z,99668.83
2019-01-02T20:52:34.490Z,99671.23
2019-01-02T20:55:08.608Z,99672.02
2019-01-02T20:57:40.596Z,99667.84
2019-01-02T21:00:13.705Z,99670.63
2019-01-02T21:02:45.550Z,99669.84
2019-01-02T21:05:20.205Z,99676.58
2019-01-02T21:07:53.196Z,99680.11
2019-01-02T21:10:25.284Z,99688.05
2019-01-02T21:12:57.805Z,99684.56
2019-01-02T21:15:31.574Z,99675.73
2019-01-02T21:18:04.458Z,99673.55
2019-01-02T21:20:36.386Z,99674.68
2019-01-02T21:23:09.525Z,99672.59
2019-01-02T21:25:41.495Z,99672.19
2019-01-02T21:28:16.679Z,99676.42
2019-01-02T21:30:50.642Z,99672.94
2019-01-02T21:33:24.939Z,99671.16
2019-01-02T21:35:57.609Z,99670.86
2019-01-02T21:38:31.632Z,99669.03
2019-01-02T21:41:03.102Z,99673.98
2019-01-02T21:43:36.755Z,99679.57
2019-01-02T21:46:10.899Z,99672.24
2019-01-02T21:48:44.727Z,99670.58
2019-01-02T21:51:17.750Z,99676.36
2019-01-02T21:53:51.275Z,99672.25
2019-01-02T21:56:24.889Z,99669.56
2019-01-02T21:58:58.617Z,99661.86
2019-01-02T22:01:32.449Z,99666.55
2019-01-02T22:04:07.205Z,99660.91
2019-01-02T22:06:39.618Z,99659.77
2019-01-02T22:09:14.541Z,99651.86
2019-01-02T22:11:45.794Z,99657.81
2019-01-02T22:14:18.097Z,99641.89
2019-01-02T22:16:51.094Z,99640.55
2019-01-02T22:19:22.788Z,99649.87
2019-01-02T22:21:56.497Z,99649.70
2019-01-02T22:24:28.812Z,99652.98
2019-01-02T22:27:00.737Z,99659.41
2019-01-02T22:29:33.880Z,99660.92
2019-01-02T22:32:13.274Z,99665.06
2019-01-02T22:34:45.073Z,99672.97
2019-01-02T22:37:19.590Z,99668.86
2019-01-02T22:39:52.073Z,99665.20
2019-01-02T22:42:25.298Z,99669.83
2019-01-02T22:44:57.835Z,99679.50
2019-01-02T22:47:31.308Z,99684.58
2019-01-02T22:50:08.469Z,99686.34
2019-01-02T22:52:43.696Z,99683.72
2019-01-02T22:55:18.156Z,99689.77
2019-01-02T22:57:51.021Z,99681.06
2019-01-02T23:00:42.891Z,99686.63
2019-01-02T23:03:38.564Z,99678.78
2019-01-02T23:06:30.490Z,99681.06
2019-01-02T23:09:20.873Z,99685.69
2019-01-02T23:12:05.905Z,99692.32
2019-01-02T23:15:04.187Z,99702.13
2019-01-02T23:18:15.506Z,99702.65
2019-01-02T23:21:04.839Z,99697.39
2019-01-02T23:24:14.911Z,99702.16
2019-01-02T23:27:24.938Z,99702.86
2019-01-02T23:30:35.991Z,99713.73
2019-01-02T23:33:28.315Z,99711.77
2019-01-02T23:36:23.600Z,99717.84
2019-01-02T23:39:20.094Z,99723.30
2019-01-02T23:42:24.005Z,99730.49
2019-01-02T23:45:15.091Z,99712.36
2019-01-02T23:48:04.220Z,99721.69
2019-01-02T23:50:57.596Z,99727.87
2019-01-02T23:53:42.938Z,99744.39
2019-01-02T23:56:34.010Z,99743.98
2019-01-02T23:59:26.057Z,99741.17
